Atqasuk, Alaska
Current Conditions -  °F | °C
As of 8:05 PM on Saturday 25 Oct 2014 (Local Time) from PAWI Reporting Station
Scattered Clouds Scattered Clouds  
Wind Chill: -23°   Ceiling: Unl
Heat Index: -14°   Visibility: 8mi
Dew Point: -17°   Wind: 14mph
Humidity: 79%   Direction: 70°ENE
Pressure: 29.57"   Gusts: NA
Location:  70.47°N, 157.4°W
Report Text: PAWI 260405Z AUTO 07012KT 8SM SCT002 M14/M17 A2957 RMK AO2 TSNO
Loading
Personal Weather Stations






























Interactive Weather Map
Tropical Storm Tracking
New forecast layout! Learn more

10-Day Weather Forecast

Advertisements
Track Severe Weather on mobile